createdAt,value
2023-05-18T03:26:48.321Z,101243.27
2023-05-18T03:29:18.057Z,101243.52
2023-05-18T03:31:47.291Z,101245.61
2023-05-18T03:34:16.356Z,101247.58
2023-05-18T03:36:47.568Z,101247.83
2023-05-18T03:39:16.379Z,101250.29
2023-05-18T03:41:44.692Z,101255.33
2023-05-18T03:44:13.072Z,101254.35
2023-05-18T03:46:41.845Z,101252.47
2023-05-18T03:49:10.385Z,101255.71
2023-05-18T03:51:41.003Z,101259.67
2023-05-18T03:54:09.513Z,101262.71
2023-05-18T03:56:38.042Z,101265.59
2023-05-18T03:59:06.844Z,101263.20
2023-05-18T04:01:35.483Z,101263.65
2023-05-18T04:04:04.490Z,101266.75
2023-05-18T04:06:35.518Z,101265.05
2023-05-18T04:09:05.015Z,101269.52
2023-05-18T04:11:33.477Z,101269.13
2023-05-18T04:14:01.868Z,101271.73
2023-05-18T04:16:31.351Z,101276.40
2023-05-18T04:19:00.688Z,101274.81
2023-05-18T04:21:35.649Z,101276.45
2023-05-18T04:24:05.952Z,101272.31
2023-05-18T04:26:36.790Z,101276.80
2023-05-18T04:29:07.857Z,101275.14
2023-05-18T04:31:44.840Z,101275.95
2023-05-18T04:34:13.954Z,101277.29
2023-05-18T04:36:44.159Z,101283.04
2023-05-18T04:39:12.909Z,101283.06
2023-05-18T04:41:42.490Z,101282.40
2023-05-18T04:44:14.342Z,101280.05
2023-05-18T04:46:42.866Z,101281.01
2023-05-18T04:49:11.816Z,101280.84
2023-05-18T04:51:42.281Z,101287.40
2023-05-18T04:54:13.151Z,101290.34
2023-05-18T04:56:41.574Z,101293.16
2023-05-18T04:59:11.010Z,101293.47
2023-05-18T05:01:39.625Z,101297.57
2023-05-18T05:04:08.056Z,101298.92
2023-05-18T05:06:36.637Z,101299.46
2023-05-18T05:09:05.737Z,101303.75
2023-05-18T05:11:34.980Z,101301.59
2023-05-18T05:14:03.670Z,101300.84
2023-05-18T05:16:32.743Z,101304.85
2023-05-18T05:19:02.626Z,101305.55
2023-05-18T05:21:32.321Z,101305.94
2023-05-18T05:24:05.022Z,101302.52
2023-05-18T05:26:33.850Z,101306.40
2023-05-18T05:29:02.224Z,101309.74
2023-05-18T05:31:31.691Z,101311.83
2023-05-18T05:34:00.259Z,101316.25
2023-05-18T05:36:30.288Z,101319.02
2023-05-18T05:38:58.694Z,101318.66
2023-05-18T05:41:27.147Z,101321.80
2023-05-18T05:43:57.134Z,101324.41
2023-05-18T05:46:26.194Z,101324.69
2023-05-18T05:48:55.353Z,101321.56
2023-05-18T05:51:23.752Z,101321.36
2023-05-18T05:53:52.850Z,101317.02
2023-05-18T05:56:23.119Z,101319.25
2023-05-18T05:58:51.961Z,101320.40
2023-05-18T06:01:20.534Z,101322.05
2023-05-18T06:03:48.978Z,101320.63
2023-05-18T06:06:17.509Z,101322.52
2023-05-18T06:08:45.855Z,101326.52
2023-05-18T06:11:15.164Z,101326.98
2023-05-18T06:13:43.622Z,101325.59
2023-05-18T06:16:12.099Z,101326.70
2023-05-18T06:18:40.559Z,101324.08
2023-05-18T06:21:08.993Z,101326.02
2023-05-18T06:23:39.542Z,101330.55
2023-05-18T06:26:22.354Z,101331.89
2023-05-18T06:28:57.749Z,101330.22
2023-05-18T06:31:46.077Z,101325.88
2023-05-18T06:34:24.586Z,101326.83
2023-05-18T06:36:52.977Z,101329.90
2023-05-18T06:39:21.428Z,101325.58
2023-05-18T06:41:52.266Z,101322.50
2023-05-18T06:44:24.582Z,101323.33
2023-05-18T06:47:13.084Z,101325.06
2023-05-18T06:49:41.561Z,101323.47
2023-05-18T06:52:10.357Z,101323.75
2023-05-18T06:54:39.164Z,101325.91
2023-05-18T06:57:07.961Z,101327.67
2023-05-18T06:59:36.501Z,101330.35
2023-05-18T07:02:05.785Z,101337.66
2023-05-18T07:04:35.061Z,101335.80
2023-05-18T07:10:44.238Z,101335.77
2023-05-18T07:13:12.665Z,101338.35
2023-05-18T07:15:41.267Z,101337.94
2023-05-18T07:18:09.608Z,101337.36
2023-05-18T07:20:38.001Z,101333.29
2023-05-18T07:23:06.701Z,101332.17
2023-05-18T07:25:35.129Z,101336.13
2023-05-18T07:28:03.552Z,101332.33
2023-05-18T07:30:32.071Z,101338.70
2023-05-18T07:33:01.018Z,101335.86
2023-05-18T07:35:29.662Z,101341.05
2023-05-18T07:37:58.361Z,101339.55
2023-05-18T07:40:26.807Z,101337.16
2023-05-18T07:42:55.425Z,101332.34
2023-05-18T07:45:24.094Z,101332.91
2023-05-18T07:47:52.805Z,101329.45
2023-05-18T07:50:21.403Z,101330.69
2023-05-18T07:52:49.889Z,101332.61
2023-05-18T07:55:19.034Z,101334.42
2023-05-18T07:57:47.772Z,101334.63
2023-05-18T08:00:18.351Z,101337.48
2023-05-18T08:02:47.377Z,101330.58
2023-05-18T08:05:16.178Z,101326.08
2023-05-18T08:07:44.758Z,101328.28
2023-05-18T08:10:13.142Z,101324.81
2023-05-18T08:12:41.533Z,101333.23
2023-05-18T08:15:10.899Z,101332.59
2023-05-18T08:17:40.102Z,101327.41
2023-05-18T08:20:10.676Z,101325.86
2023-05-18T08:22:39.386Z,101326.57
2023-05-18T08:25:10.351Z,101330.26
2023-05-18T08:27:39.031Z,101331.15
2023-05-18T08:30:08.925Z,101328.01
2023-05-18T08:32:37.585Z,101323.45
2023-05-18T08:35:08.519Z,101319.59
2023-05-18T08:37:37.716Z,101318.33
2023-05-18T08:40:11.764Z,101316.80
2023-05-18T08:42:53.325Z,101320.63
2023-05-18T08:45:51.026Z,101323.02
2023-05-18T08:48:24.465Z,101317.72
2023-05-18T08:50:58.429Z,101315.75
2023-05-18T08:53:27.090Z,101316.42
2023-05-18T08:55:57.879Z,101320.22
2023-05-18T08:58:41.118Z,101314.70
2023-05-18T09:01:10.421Z,101311.19
2023-05-18T09:03:39.704Z,101315.13
2023-05-18T09:06:08.136Z,101314.35
2023-05-18T09:08:37.922Z,101316.35
2023-05-18T09:11:07.318Z,101311.42
2023-05-18T09:13:36.284Z,101305.30
2023-05-18T09:16:05.026Z,101307.34
2023-05-18T09:18:33.518Z,101306.98
2023-05-18T09:21:02.076Z,101307.05
2023-05-18T09:23:30.975Z,101307.21
2023-05-18T09:26:00.762Z,101305.82
2023-05-18T09:28:43.603Z,101306.14
2023-05-18T09:31:19.724Z,101301.41
2023-05-18T09:33:48.473Z,101306.27
2023-05-18T09:36:17.673Z,101307.40
2023-05-18T09:38:46.909Z,101304.31
2023-05-18T09:44:49.485Z,101298.80
2023-05-18T09:47:18.626Z,101302.02
2023-05-18T09:49:50.464Z,101298.42
2023-05-18T09:52:19.188Z,101293.94
2023-05-18T09:55:01.881Z,101288.87
2023-05-18T09:57:30.608Z,101289.70
2023-05-18T10:00:15.682Z,101294.88
2023-05-18T10:02:52.980Z,101290.98
2023-05-18T10:05:35.764Z,101287.02
2023-05-18T10:08:05.808Z,101285.80
2023-05-18T10:10:41.805Z,101287.23
2023-05-18T10:13:20.158Z,101285.56
2023-05-18T10:15:51.158Z,101282.70
2023-05-18T10:18:27.965Z,101284.27
2023-05-18T10:21:00.055Z,101288.63
2023-05-18T10:23:37.468Z,101288.69
2023-05-18T10:26:10.566Z,101284.89
2023-05-18T10:28:39.683Z,101282.78
2023-05-18T10:31:08.964Z,101280.54
2023-05-18T10:33:38.567Z,101277.46
2023-05-18T10:36:09.285Z,101276.68
2023-05-18T10:38:44.420Z,101274.90
2023-05-18T10:41:15.498Z,101275.46
2023-05-18T10:43:46.247Z,101273.65
2023-05-18T10:46:16.948Z,101273.42
2023-05-18T10:48:52.970Z,101271.02
2023-05-18T10:51:21.890Z,101269.13
2023-05-18T10:53:51.378Z,101268.15
2023-05-18T10:56:20.449Z,101269.67
2023-05-18T10:58:49.440Z,101268.87
2023-05-18T11:01:26.839Z,101267.58
2023-05-18T11:03:55.816Z,101263.25
2023-05-18T11:06:24.722Z,101262.31
2023-05-18T11:08:53.289Z,101258.00
2023-05-18T11:11:59.808Z,101257.56
2023-05-18T11:14:31.134Z,101255.83
2023-05-18T11:17:20.807Z,101256.03
2023-05-18T11:20:05.274Z,101260.55
2023-05-18T11:23:09.401Z,101261.98
2023-05-18T11:25:39.537Z,101262.60
2023-05-18T11:28:11.203Z,101260.98
2023-05-18T11:30:42.534Z,101261.38
2023-05-18T11:33:16.217Z,101258.29
2023-05-18T11:36:15.114Z,101254.88
2023-05-18T11:39:05.208Z,101251.27
2023-05-18T11:41:44.868Z,101250.44
2023-05-18T11:44:15.324Z,101244.32
2023-05-18T11:47:00.431Z,101244.12
2023-05-18T11:49:30.431Z,101242.81
2023-05-18T11:52:25.987Z,101244.41
2023-05-18T11:55:01.723Z,101245.02
2023-05-18T11:57:33.142Z,101238.98
2023-05-18T12:00:08.188Z,101238.22
2023-05-18T12:02:46.652Z,101239.09
2023-05-18T12:05:16.237Z,101241.41
2023-05-18T12:07:46.142Z,101244.12
2023-05-18T12:10:15.284Z,101247.80
2023-05-18T12:12:48.128Z,101246.27
2023-05-18T12:15:22.538Z,101247.04
2023-05-18T12:17:53.284Z,101244.04
2023-05-18T12:20:28.416Z,101244.66
2023-05-18T12:22:57.192Z,101247.30
2023-05-18T12:25:28.115Z,101245.80
2023-05-18T12:27:57.358Z,101237.83
2023-05-18T12:30:38.855Z,101236.28
2023-05-18T12:33:08.200Z,101236.45
2023-05-18T12:35:36.790Z,101235.98
2023-05-18T12:38:05.340Z,101231.36
2023-05-18T12:40:44.552Z,101233.17
2023-05-18T12:43:13.582Z,101233.20
2023-05-18T12:46:24.875Z,101232.12
2023-05-18T12:49:01.695Z,101232.23
2023-05-18T12:51:38.507Z,101230.08
2023-05-18T12:54:08.485Z,101234.58
2023-05-18T12:57:01.352Z,101227.23
2023-05-18T12:59:31.450Z,101223.16
2023-05-18T13:02:00.371Z,101222.95
2023-05-18T13:04:38.421Z,101227.58
2023-05-18T13:07:06.913Z,101232.43
2023-05-18T13:09:35.334Z,101232.28
2023-05-18T13:12:08.096Z,101230.45
2023-05-18T13:14:39.768Z,101225.95
2023-05-18T13:17:11.998Z,101224.46
2023-05-18T13:19:41.566Z,101223.60
2023-05-18T13:22:09.869Z,101227.55
2023-05-18T13:24:39.293Z,101225.64
2023-05-18T13:27:07.764Z,101222.10
2023-05-18T13:29:39.887Z,101218.69
2023-05-18T13:32:08.375Z,101216.63
2023-05-18T13:34:36.875Z,101214.75
2023-05-18T13:37:05.480Z,101214.43
2023-05-18T13:39:33.597Z,101209.01
2023-05-18T13:42:03.228Z,101211.23
2023-05-18T13:44:32.132Z,101209.27
2023-05-18T13:47:00.950Z,101214.02
2023-05-18T13:49:29.379Z,101211.73
2023-05-18T13:52:00.361Z,101212.73
2023-05-18T13:54:28.689Z,101216.49
2023-05-18T13:56:57.143Z,101214.18
2023-05-18T13:59:25.374Z,101218.95
2023-05-18T14:01:53.801Z,101218.36
2023-05-18T14:04:22.217Z,101221.95
2023-05-18T14:06:54.493Z,101221.12
2023-05-18T14:09:22.971Z,101222.64
2023-05-18T14:11:53.553Z,101218.70
2023-05-18T14:14:22.219Z,101215.79
2023-05-18T14:16:50.498Z,101210.35
2023-05-18T14:19:18.898Z,101213.23
2023-05-18T14:21:47.468Z,101219.08
2023-05-18T14:24:15.803Z,101216.10
2023-05-18T14:26:44.056Z,101215.23
2023-05-18T14:29:12.341Z,101215.68
2023-05-18T14:31:40.755Z,101215.35
2023-05-18T14:34:09.266Z,101218.89
2023-05-18T14:36:37.552Z,101221.75
2023-05-18T14:39:06.512Z,101222.89
2023-05-18T14:41:34.817Z,101219.63
2023-05-18T14:44:04.118Z,101223.84
2023-05-18T14:46:32.474Z,101223.55
2023-05-18T14:49:01.096Z,101224.39
2023-05-18T14:51:29.472Z,101220.96
2023-05-18T14:53:58.461Z,101220.46
2023-05-18T14:56:27.168Z,101214.89
2023-05-18T14:58:55.869Z,101209.08
2023-05-18T15:01:24.188Z,101205.15
2023-05-18T15:03:53.223Z,101206.48
2023-05-18T15:06:21.898Z,101207.38
2023-05-18T15:08:53.818Z,101208.34
2023-05-18T15:11:26.378Z,101206.75
2023-05-18T15:13:58.079Z,101208.39
2023-05-18T15:16:27.551Z,101205.70
2023-05-18T15:18:57.178Z,101206.14
2023-05-18T15:21:31.154Z,101210.05
2023-05-18T15:23:59.772Z,101208.59
2023-05-18T15:26:28.276Z,101210.48
2023-05-18T15:28:56.664Z,101213.52
2023-05-18T15:31:25.075Z,101208.45
2023-05-18T15:33:53.467Z,101209.84
2023-05-18T15:36:22.109Z,101213.90
2023-05-18T15:38:51.701Z,101215.63
2023-05-18T15:41:20.447Z,101223.59
2023-05-18T15:43:48.903Z,101225.42
2023-05-18T15:46:17.358Z,101227.43
2023-05-18T15:48:45.699Z,101229.04
2023-05-18T15:51:14.533Z,101226.08
2023-05-18T15:53:44.928Z,101227.69
2023-05-18T15:56:15.912Z,101230.34
2023-05-18T15:58:46.194Z,101230.78
2023-05-18T16:01:17.013Z,101232.65
2023-05-18T16:03:46.169Z,101238.22
2023-05-18T16:06:15.225Z,101243.15
2023-05-18T16:08:46.286Z,101247.58
2023-05-18T16:11:14.721Z,101248.42
2023-05-18T16:13:44.548Z,101244.13
2023-05-18T16:16:14.385Z,101245.77
2023-05-18T16:18:45.916Z,101246.15
2023-05-18T16:21:15.706Z,101248.13
2023-05-18T16:23:44.433Z,101252.42
2023-05-18T16:26:14.315Z,101249.91
2023-05-18T16:28:46.668Z,101253.45
2023-05-18T16:31:16.088Z,101254.40
2023-05-18T16:33:45.074Z,101258.23
2023-05-18T16:36:13.595Z,101258.88
2023-05-18T16:38:42.156Z,101258.35
2023-05-18T16:41:11.309Z,101262.36
2023-05-18T16:43:39.841Z,101262.05
